createdAt,value
2023-04-10T00:00:39.512Z,22.90
2023-04-10T00:03:07.968Z,23.30
2023-04-10T00:08:13.392Z,23.30
2023-04-10T00:10:42.173Z,24.60
2023-04-10T00:13:11.158Z,26.80
2023-04-10T00:15:40.125Z,24.90
2023-04-10T00:18:11.195Z,23.50
2023-04-10T00:20:39.320Z,23.30
2023-04-10T00:23:09.441Z,25.60
2023-04-10T00:25:37.677Z,23.60
2023-04-10T00:28:05.837Z,25.90
2023-04-10T00:30:34.172Z,26.50
2023-04-10T00:33:13.259Z,27.10
2023-04-10T00:35:44.878Z,24.00
2023-04-10T00:38:13.431Z,27.00
2023-04-10T00:40:43.070Z,27.20
2023-04-10T00:43:12.767Z,28.80
2023-04-10T00:45:40.971Z,26.90
2023-04-10T00:48:13.037Z,29.50
2023-04-10T00:50:41.674Z,28.10
2023-04-10T00:53:09.848Z,28.50
2023-04-10T00:55:39.780Z,27.60
2023-04-10T00:58:08.065Z,27.70
2023-04-10T01:00:43.273Z,29.70
2023-04-10T01:03:15.976Z,26.60
2023-04-10T01:06:07.488Z,28.50
2023-04-10T01:08:47.779Z,28.40
2023-04-10T01:11:19.300Z,30.10
2023-04-10T01:13:53.528Z,25.10
2023-04-10T01:16:33.354Z,28.60
2023-04-10T01:19:05.500Z,28.30
2023-04-10T01:21:35.165Z,30.90
2023-04-10T01:24:21.521Z,29.70
2023-04-10T01:26:53.352Z,32.00
2023-04-10T01:29:23.170Z,32.30
2023-04-10T01:31:58.614Z,31.60
2023-04-10T01:34:32.713Z,33.40
2023-04-10T01:37:02.392Z,34.40
2023-04-10T01:39:30.760Z,30.90
2023-04-10T01:42:01.482Z,31.40
2023-04-10T01:44:42.390Z,32.50
2023-04-10T01:47:10.780Z,31.90
2023-04-10T01:49:44.574Z,32.40
2023-04-10T01:52:13.291Z,32.10
2023-04-10T01:54:43.540Z,31.30
2023-04-10T01:57:16.088Z,32.60
2023-04-10T02:00:05.739Z,30.70
2023-04-10T02:02:44.762Z,30.90
2023-04-10T02:05:13.405Z,31.50
2023-04-10T02:07:45.942Z,31.50
2023-04-10T02:10:25.044Z,31.90
2023-04-10T02:12:56.795Z,32.90
2023-04-10T02:15:30.886Z,32.40
2023-04-10T02:18:01.176Z,32.90
2023-04-10T02:20:31.253Z,31.90
2023-04-10T02:23:04.117Z,31.00
2023-04-10T02:25:33.727Z,31.70
2023-04-10T02:28:06.038Z,26.60
2023-04-10T02:30:34.756Z,28.70
2023-04-10T02:33:03.193Z,28.10
2023-04-10T02:35:33.333Z,28.80
2023-04-10T02:38:01.679Z,28.10
2023-04-10T02:40:29.954Z,28.00
2023-04-10T02:43:09.791Z,28.90
2023-04-10T02:45:39.110Z,31.30
2023-04-10T02:48:13.319Z,31.00
2023-04-10T02:50:46.546Z,28.80
2023-04-10T02:53:16.230Z,31.70
2023-04-10T02:55:45.856Z,31.20
2023-04-10T02:58:15.235Z,31.10
2023-04-10T03:00:51.376Z,31.00
2023-04-10T03:03:40.088Z,29.90
2023-04-10T03:06:13.844Z,32.10
2023-04-10T03:08:42.840Z,31.70
2023-04-10T03:11:11.122Z,31.70
2023-04-10T03:13:44.724Z,32.30
2023-04-10T03:16:13.407Z,31.30
2023-04-10T03:18:42.454Z,31.50
2023-04-10T03:21:13.362Z,32.60
2023-04-10T03:23:42.027Z,31.50
2023-04-10T03:26:10.278Z,29.60
2023-04-10T03:28:41.495Z,33.00
2023-04-10T03:31:12.686Z,31.90
2023-04-10T03:36:11.637Z,28.40
2023-04-10T03:38:40.796Z,30.80
2023-04-10T03:41:12.198Z,31.90
2023-04-10T03:43:42.481Z,31.70
2023-04-10T03:46:10.768Z,35.10
2023-04-10T03:48:42.919Z,33.40
2023-04-10T03:51:11.755Z,33.00
2023-04-10T03:53:39.926Z,34.30
2023-04-10T03:56:11.777Z,33.50
2023-04-10T03:58:41.532Z,30.60
2023-04-10T04:01:11.494Z,32.60
2023-04-10T04:03:54.525Z,30.90
2023-04-10T04:06:43.492Z,33.10
2023-04-10T04:09:27.074Z,30.50
2023-04-10T04:12:20.891Z,28.30
2023-04-10T04:15:01.472Z,29.80
2023-04-10T04:17:54.799Z,26.60
2023-04-10T04:20:32.627Z,29.00
2023-04-10T04:23:19.376Z,27.60
2023-04-10T04:26:10.878Z,29.40
2023-04-10T04:28:57.517Z,31.60
2023-04-10T04:31:45.589Z,31.50
2023-04-10T04:34:46.651Z,30.90
2023-04-10T04:37:33.639Z,29.70
2023-04-10T04:40:21.046Z,31.20
2023-04-10T04:43:08.561Z,31.00
2023-04-10T04:45:56.918Z,30.30
2023-04-10T04:48:40.307Z,33.70
2023-04-10T04:51:45.147Z,31.10
2023-04-10T04:54:29.718Z,30.30
2023-04-10T04:57:17.588Z,32.80
2023-04-10T05:00:07.159Z,30.20
2023-04-10T05:02:54.943Z,31.40
2023-04-10T05:05:44.435Z,35.00
2023-04-10T05:08:36.576Z,30.40
2023-04-10T05:11:09.983Z,31.70
2023-04-10T05:13:59.851Z,31.90
2023-04-10T05:17:03.342Z,27.00
2023-04-10T05:20:05.005Z,29.30
2023-04-10T05:22:58.728Z,29.00
2023-04-10T05:25:46.335Z,29.80
2023-04-10T05:28:37.179Z,30.40
2023-04-10T05:31:28.126Z,28.90
2023-04-10T05:34:17.271Z,28.30
2023-04-10T05:37:13.128Z,27.40
2023-04-10T05:40:01.853Z,29.20
2023-04-10T05:42:37.098Z,28.40
2023-04-10T05:45:29.040Z,27.60
2023-04-10T05:48:17.743Z,31.40
2023-04-10T05:51:04.687Z,26.20
2023-04-10T05:53:43.525Z,31.30
2023-04-10T05:56:29.358Z,28.00
2023-04-10T05:59:21.524Z,26.10
2023-04-10T06:02:28.374Z,28.90
2023-04-10T06:04:56.832Z,26.70
2023-04-10T06:07:25.729Z,27.70
2023-04-10T06:09:55.561Z,26.10
2023-04-10T06:12:24.355Z,26.10
2023-04-10T06:14:54.755Z,26.60
2023-04-10T06:17:25.969Z,27.30
2023-04-10T06:19:56.934Z,27.70
2023-04-10T06:22:32.828Z,27.90
2023-04-10T06:25:02.355Z,31.90
2023-04-10T06:27:31.466Z,29.30
2023-04-10T06:30:01.302Z,24.70
2023-04-10T06:32:30.797Z,31.10
2023-04-10T06:34:59.331Z,27.00
2023-04-10T06:37:33.053Z,29.10
2023-04-10T06:40:10.275Z,29.50
2023-04-10T06:42:39.002Z,29.20
2023-04-10T06:45:31.400Z,29.00
2023-04-10T06:48:00.062Z,26.70
2023-04-10T06:50:28.221Z,27.00
2023-04-10T06:52:59.931Z,30.70
2023-04-10T06:55:30.049Z,29.30
2023-04-10T06:58:18.123Z,29.00
2023-04-10T07:00:48.943Z,31.40
2023-04-10T07:03:18.271Z,28.40
2023-04-10T07:05:53.152Z,26.00
2023-04-10T07:08:21.586Z,29.40
2023-04-10T07:10:50.465Z,28.30
2023-04-10T07:13:18.649Z,30.00
2023-04-10T07:15:49.091Z,27.70
2023-04-10T07:18:17.616Z,28.20
2023-04-10T07:20:45.839Z,30.70
2023-04-10T07:23:22.759Z,32.20
2023-04-10T07:25:52.244Z,29.10
2023-04-10T07:28:20.416Z,32.70
2023-04-10T07:30:52.440Z,30.30
2023-04-10T07:33:21.627Z,32.80
2023-04-10T07:35:49.968Z,34.40
2023-04-10T07:38:19.222Z,32.70
2023-04-10T07:40:49.569Z,34.30
2023-04-10T07:43:17.680Z,32.90
2023-04-10T07:45:47.504Z,31.30
2023-04-10T07:48:15.936Z,30.10
2023-04-10T07:50:46.098Z,26.00
2023-04-10T07:53:14.983Z,26.70
2023-04-10T07:55:44.705Z,24.20
2023-04-10T07:58:13.864Z,24.00
2023-04-10T08:00:42.405Z,25.00
2023-04-10T08:03:12.023Z,23.90
2023-04-10T08:05:40.783Z,23.60
2023-04-10T08:08:09.030Z,20.80
2023-04-10T08:10:38.143Z,21.50
2023-04-10T08:13:07.415Z,19.90
2023-04-10T08:15:35.873Z,19.40
2023-04-10T08:18:09.575Z,22.00
2023-04-10T08:20:39.977Z,19.90
2023-04-10T08:23:19.698Z,17.10
2023-04-10T08:25:48.829Z,16.60
2023-04-10T08:28:17.317Z,15.20
2023-04-10T08:30:45.881Z,16.60
2023-04-10T08:33:14.703Z,16.10
2023-04-10T08:35:48.619Z,17.50
2023-04-10T08:38:17.582Z,14.90
2023-04-10T08:40:45.737Z,16.60
2023-04-10T08:43:13.949Z,14.80
2023-04-10T08:45:43.741Z,14.20
2023-04-10T08:48:11.899Z,14.30
2023-04-10T08:50:43.885Z,13.20
2023-04-10T08:53:13.748Z,13.00
2023-04-10T08:55:44.685Z,13.20
2023-04-10T08:58:13.892Z,11.80
2023-04-10T09:00:42.169Z,12.60
2023-04-10T09:03:14.348Z,14.50
2023-04-10T09:05:42.896Z,12.10
2023-04-10T09:08:14.026Z,12.00
2023-04-10T09:10:42.250Z,13.50
2023-04-10T09:13:11.675Z,12.20
2023-04-10T09:15:58.828Z,12.10
2023-04-10T09:18:47.040Z,13.10
2023-04-10T09:21:17.477Z,12.70
2023-04-10T09:23:46.837Z,13.50
2023-04-10T09:26:32.816Z,12.70
2023-04-10T09:29:04.657Z,13.10
2023-04-10T09:34:23.886Z,14.50
2023-04-10T09:36:55.811Z,14.30
2023-04-10T09:39:34.383Z,15.40
2023-04-10T09:42:02.957Z,15.10
2023-04-10T09:44:33.643Z,15.60
2023-04-10T09:47:14.823Z,13.90
2023-04-10T09:49:48.351Z,13.20
2023-04-10T09:52:22.325Z,14.60
2023-04-10T09:54:50.560Z,12.50
2023-04-10T09:57:20.270Z,14.60
2023-04-10T09:59:52.489Z,14.00
2023-04-10T10:04:50.562Z,13.80
2023-04-10T10:07:23.114Z,13.50
2023-04-10T10:09:52.506Z,12.70
2023-04-10T10:12:34.687Z,12.30
2023-04-10T10:15:37.419Z,12.50
2023-04-10T10:18:36.782Z,11.70
2023-04-10T10:21:05.066Z,12.00
2023-04-10T10:23:35.386Z,11.20
2023-04-10T10:26:05.696Z,10.60
2023-04-10T10:28:37.306Z,9.90
2023-04-10T10:31:06.938Z,9.90
2023-04-10T10:33:38.429Z,9.80
2023-04-10T10:36:06.714Z,8.80
2023-04-10T10:38:37.289Z,8.40
2023-04-10T10:41:28.801Z,7.80
2023-04-10T10:44:27.470Z,6.70
2023-04-10T10:47:07.660Z,6.10
2023-04-10T10:49:55.789Z,5.90
2023-04-10T10:52:44.575Z,6.40
2023-04-10T10:55:22.682Z,6.50
2023-04-10T10:57:55.085Z,6.10
2023-04-10T11:00:24.728Z,6.70
2023-04-10T11:03:08.890Z,6.40
2023-04-10T11:05:56.050Z,7.50
2023-04-10T11:08:33.389Z,5.80
2023-04-10T11:11:05.907Z,5.30
2023-04-10T11:13:59.013Z,4.60
2023-04-10T11:16:34.953Z,4.90
2023-04-10T11:19:14.246Z,4.20
2023-04-10T11:22:08.166Z,5.00
2023-04-10T11:24:59.018Z,5.40
2023-04-10T11:27:51.917Z,5.20
2023-04-10T11:30:26.282Z,4.90
2023-04-10T11:32:56.154Z,6.40
2023-04-10T11:35:25.968Z,5.90
2023-04-10T11:38:13.956Z,8.60
2023-04-10T11:40:59.562Z,7.40
2023-04-10T11:43:27.947Z,7.80
2023-04-10T11:46:07.895Z,6.20
2023-04-10T11:48:37.082Z,6.00
2023-04-10T11:51:12.036Z,7.40
2023-04-10T11:53:40.896Z,7.50
2023-04-10T11:56:21.341Z,7.70
2023-04-10T11:58:54.640Z,8.80
2023-04-10T12:01:23.877Z,7.00
2023-04-10T12:03:52.457Z,7.90
2023-04-10T12:06:21.183Z,9.10
2023-04-10T12:08:51.351Z,8.00
2023-04-10T12:11:26.086Z,8.10
2023-04-10T12:13:58.280Z,7.20
2023-04-10T12:16:27.556Z,7.90
2023-04-10T12:19:03.253Z,9.00
2023-04-10T12:21:31.794Z,9.80
2023-04-10T12:24:01.775Z,9.50
2023-04-10T12:26:30.448Z,9.50
2023-04-10T12:28:58.780Z,10.00
2023-04-10T12:31:36.740Z,10.90
2023-04-10T12:34:07.091Z,11.30
2023-04-10T12:36:37.574Z,11.10
2023-04-10T12:39:08.802Z,10.90
2023-04-10T12:41:37.712Z,10.80
2023-04-10T12:44:13.501Z,10.20
2023-04-10T12:46:43.460Z,10.90
2023-04-10T12:49:13.994Z,15.30
2023-04-10T12:51:52.196Z,15.40
2023-04-10T12:54:31.310Z,16.20
2023-04-10T12:57:07.147Z,14.00
2023-04-10T12:59:36.137Z,16.30
2023-04-10T13:02:04.534Z,16.90
2023-04-10T13:04:34.239Z,16.50
2023-04-10T13:07:04.243Z,18.90
2023-04-10T13:09:33.064Z,20.20
2023-04-10T13:12:10.851Z,19.60
2023-04-10T13:14:41.657Z,13.20
2023-04-10T13:17:09.986Z,8.20
2023-04-10T13:19:39.363Z,6.70
2023-04-10T13:22:07.540Z,6.70
2023-04-10T13:24:37.183Z,6.30
2023-04-10T13:27:05.488Z,5.90
2023-04-10T13:29:33.954Z,6.00
2023-04-10T13:32:05.504Z,5.30
2023-04-10T13:34:43.467Z,5.50
2023-04-10T13:37:13.320Z,6.00
2023-04-10T13:39:43.424Z,6.70
2023-04-10T13:42:11.797Z,6.60
2023-04-10T13:44:40.399Z,5.90
2023-04-10T13:47:14.912Z,6.30
2023-04-10T13:49:45.106Z,6.40
2023-04-10T13:52:13.583Z,7.50
2023-04-10T13:54:44.145Z,6.50
2023-04-10T13:57:12.382Z,8.40
2023-04-10T13:59:41.879Z,9.10
2023-04-10T14:02:10.195Z,9.00
2023-04-10T14:04:39.550Z,9.80
2023-04-10T14:07:08.005Z,10.40
2023-04-10T14:09:37.303Z,10.40
2023-04-10T14:12:05.857Z,10.40
2023-04-10T14:14:41.097Z,9.90
2023-04-10T14:17:09.455Z,9.60
2023-04-10T14:19:38.065Z,9.80
2023-04-10T14:22:06.272Z,10.60
2023-04-10T14:24:34.746Z,10.50
2023-04-10T14:27:03.790Z,11.20
2023-04-10T14:29:38.848Z,12.90
2023-04-10T14:32:11.074Z,12.00
2023-04-10T14:34:40.115Z,11.50
2023-04-10T14:37:08.236Z,12.30
2023-04-10T14:39:43.922Z,11.90
2023-04-10T14:42:12.328Z,12.40
2023-04-10T14:44:40.653Z,11.80
2023-04-10T14:47:08.978Z,12.80
2023-04-10T14:49:37.328Z,14.70
2023-04-10T14:52:07.033Z,14.80
2023-04-10T14:54:36.075Z,17.20
2023-04-10T14:57:06.307Z,16.30
2023-04-10T14:59:35.759Z,16.20
2023-04-10T15:02:04.007Z,14.70
2023-04-10T15:04:32.898Z,14.50
2023-04-10T15:07:01.561Z,17.40
2023-04-10T15:09:30.122Z,16.80
2023-04-10T15:11:58.275Z,17.80
2023-04-10T15:14:27.409Z,16.90
2023-04-10T15:16:55.737Z,15.90
2023-04-10T15:19:33.452Z,15.30
2023-04-10T15:22:02.672Z,15.50
2023-04-10T15:24:34.541Z,13.90
2023-04-10T15:27:08.919Z,15.10
2023-04-10T15:29:38.215Z,15.40
2023-04-10T15:32:07.377Z,15.30
2023-04-10T15:34:36.572Z,14.20
2023-04-10T15:37:05.033Z,14.30
2023-04-10T15:39:37.201Z,14.70
2023-04-10T15:42:06.215Z,16.20
2023-04-10T15:44:34.662Z,14.10
2023-04-10T15:47:02.967Z,14.40
2023-04-10T15:49:37.757Z,12.70
2023-04-10T15:52:07.082Z,15.40
2023-04-10T15:54:38.760Z,14.50
2023-04-10T15:57:13.826Z,14.00
2023-04-10T15:59:42.334Z,15.90
2023-04-10T16:02:11.201Z,16.40
2023-04-10T16:04:46.933Z,16.20
2023-04-10T16:07:16.046Z,16.70
2023-04-10T16:09:44.196Z,16.30
2023-04-10T16:12:21.801Z,15.60
2023-04-10T16:14:50.051Z,16.00
2023-04-10T16:17:18.592Z,14.90
2023-04-10T16:19:55.451Z,16.90
2023-04-10T16:22:27.569Z,16.80
2023-04-10T16:24:59.685Z,14.70
2023-04-10T16:27:27.852Z,16.70
2023-04-10T16:29:56.198Z,17.00
2023-04-10T16:32:26.927Z,17.80
2023-04-10T16:34:55.227Z,16.30
2023-04-10T16:37:23.699Z,17.40
2023-04-10T16:39:53.295Z,17.50
2023-04-10T16:42:21.420Z,17.20
2023-04-10T16:44:49.635Z,17.20
2023-04-10T16:47:18.365Z,16.10
2023-04-10T16:49:46.866Z,16.40
2023-04-10T16:52:15.577Z,16.40
2023-04-10T16:54:43.694Z,16.40
2023-04-10T16:57:12.006Z,15.80
2023-04-10T16:59:47.387Z,14.40
2023-04-10T17:02:15.672Z,15.50
2023-04-10T17:04:44.215Z,15.80
2023-04-10T17:07:12.350Z,15.30
2023-04-10T17:09:40.774Z,15.10
2023-04-10T17:12:09.335Z,16.40
2023-04-10T17:14:44.147Z,16.70
2023-04-10T17:17:12.339Z,16.50
2023-04-10T17:19:40.772Z,16.10
2023-04-10T17:22:16.326Z,18.10
2023-04-10T17:24:44.747Z,17.10
2023-04-10T17:27:13.630Z,16.20
2023-04-10T17:29:41.843Z,16.30
2023-04-10T17:32:10.532Z,17.60
2023-04-10T17:34:38.827Z,17.20
2023-04-10T17:37:09.109Z,17.60
2023-04-10T17:39:38.711Z,17.70
2023-04-10T17:42:06.979Z,17.80
2023-04-10T17:44:36.448Z,16.30
2023-04-10T17:47:05.239Z,17.10
2023-04-10T17:49:35.166Z,18.60
2023-04-10T17:52:03.324Z,17.60
2023-04-10T17:54:38.346Z,18.90
2023-04-10T17:57:06.795Z,18.60
2023-04-10T17:59:36.901Z,18.50
2023-04-10T18:02:05.300Z,18.70
2023-04-10T18:04:34.124Z,20.10
2023-04-10T18:07:02.305Z,19.00
2023-04-10T18:09:30.987Z,20.40
2023-04-10T18:11:59.440Z,21.50
2023-04-10T18:14:27.695Z,21.00
2023-04-10T18:16:55.908Z,21.30
2023-04-10T18:19:24.729Z,21.90
2023-04-10T18:21:53.485Z,22.30
2023-04-10T18:24:22.116Z,22.70
2023-04-10T18:26:50.316Z,21.40
2023-04-10T18:29:18.694Z,20.90
2023-04-10T18:31:47.698Z,20.30
2023-04-10T18:34:15.878Z,20.30
2023-04-10T18:36:45.441Z,19.50
2023-04-10T18:39:13.632Z,20.90
2023-04-10T18:41:42.080Z,18.70
2023-04-10T18:44:10.823Z,18.50
2023-04-10T18:46:42.760Z,19.70
2023-04-10T18:49:12.632Z,19.50
2023-04-10T18:51:40.936Z,19.90
2023-04-10T18:54:10.138Z,19.70
2023-04-10T18:56:39.798Z,20.40
2023-04-10T19:01:40.458Z,19.30
2023-04-10T19:04:09.133Z,19.70
2023-04-10T19:06:41.182Z,18.20
2023-04-10T19:09:10.018Z,20.20
2023-04-10T19:11:38.766Z,17.50
2023-04-10T19:14:15.157Z,16.90
2023-04-10T19:16:44.535Z,19.40
2023-04-10T19:19:12.757Z,16.70
2023-04-10T19:21:42.348Z,17.80
2023-04-10T19:24:10.425Z,17.30
2023-04-10T19:26:38.649Z,18.80
2023-04-10T19:29:13.793Z,19.60
2023-04-10T19:31:51.429Z,19.50
2023-04-10T19:34:21.708Z,21.10
2023-04-10T19:36:51.113Z,31.50
2023-04-10T19:39:19.313Z,32.10
2023-04-10T19:41:49.027Z,32.30
2023-04-10T19:44:17.249Z,25.90
2023-04-10T19:46:45.682Z,21.90
2023-04-10T19:49:14.500Z,19.20
2023-04-10T19:51:42.948Z,16.90
2023-04-10T19:54:12.682Z,18.50
2023-04-10T19:56:41.759Z,17.50
2023-04-10T19:59:10.179Z,18.30
2023-04-10T20:01:38.491Z,17.20
2023-04-10T20:04:06.881Z,18.70
2023-04-10T20:06:35.750Z,18.50
2023-04-10T20:09:04.241Z,18.60
2023-04-10T20:11:32.962Z,18.80
2023-04-10T20:14:06.408Z,17.80
2023-04-10T20:16:34.787Z,18.00
2023-04-10T20:19:03.918Z,17.60
2023-04-10T20:21:33.165Z,18.00
2023-04-10T20:24:01.420Z,25.60
2023-04-10T20:26:30.438Z,32.20
2023-04-10T20:28:58.639Z,32.60
2023-04-10T20:31:26.955Z,34.20
2023-04-10T20:33:55.242Z,31.50
2023-04-10T20:36:23.490Z,25.70
2023-04-10T20:38:51.663Z,18.50
2023-04-10T20:41:19.901Z,16.90
2023-04-10T20:43:49.629Z,16.90
2023-04-10T20:46:17.856Z,16.70
2023-04-10T20:48:46.305Z,18.30
2023-04-10T20:51:14.730Z,17.20
2023-04-10T20:53:42.812Z,18.10
2023-04-10T20:56:10.995Z,17.00
2023-04-10T20:58:39.395Z,17.60
2023-04-10T21:01:09.756Z,16.90
2023-04-10T21:03:39.779Z,17.40
2023-04-10T21:06:08.844Z,16.90
2023-04-10T21:08:38.937Z,15.70
2023-04-10T21:11:07.354Z,16.80
2023-04-10T21:13:38.388Z,16.30
2023-04-10T21:16:07.313Z,15.90
2023-04-10T21:18:35.958Z,17.10
2023-04-10T21:21:08.671Z,17.50
2023-04-10T21:23:37.024Z,19.80
2023-04-10T21:26:05.222Z,20.80
2023-04-10T21:28:35.499Z,20.50
2023-04-10T21:31:04.041Z,19.10
2023-04-10T21:33:32.842Z,17.60
2023-04-10T21:36:01.113Z,16.60
2023-04-10T21:38:29.962Z,15.30
2023-04-10T21:40:58.388Z,16.60
2023-04-10T21:43:26.535Z,15.80
2023-04-10T21:45:54.816Z,16.00
2023-04-10T21:48:23.237Z,16.80
2023-04-10T21:50:53.026Z,15.20
2023-04-10T21:53:23.102Z,16.10
2023-04-10T21:55:52.447Z,15.80
2023-04-10T21:58:24.827Z,17.20
2023-04-10T22:00:54.528Z,16.20
2023-04-10T22:03:24.263Z,15.80
2023-04-10T22:05:53.772Z,15.30
2023-04-10T22:08:22.401Z,17.50
2023-04-10T22:10:51.117Z,16.20
2023-04-10T22:16:02.106Z,15.70
2023-04-10T22:18:31.538Z,15.90
2023-04-10T22:21:13.418Z,20.00
2023-04-10T22:23:42.780Z,24.10
2023-04-10T22:26:11.039Z,35.20
2023-04-10T22:28:42.830Z,28.90
2023-04-10T22:31:15.699Z,30.20
2023-04-10T22:33:43.991Z,26.50
2023-04-10T22:36:12.567Z,22.90
2023-04-10T22:38:40.826Z,23.10
2023-04-10T22:41:11.105Z,20.20
2023-04-10T22:43:40.173Z,24.00
2023-04-10T22:46:12.865Z,19.50
2023-04-10T22:48:41.551Z,17.90
2023-04-10T22:51:12.607Z,17.30
2023-04-10T22:53:42.865Z,16.40
2023-04-10T22:56:11.177Z,16.80
2023-04-10T22:58:43.515Z,16.20
2023-04-10T23:01:13.470Z,15.60
2023-04-10T23:03:41.744Z,14.90
2023-04-10T23:06:10.362Z,16.20
2023-04-10T23:08:38.673Z,16.50
2023-04-10T23:11:07.157Z,14.50
2023-04-10T23:13:39.881Z,16.60
2023-04-10T23:16:09.175Z,15.50
2023-04-10T23:18:37.642Z,19.00
2023-04-10T23:21:10.816Z,16.70
2023-04-10T23:23:38.932Z,18.30
2023-04-10T23:26:07.777Z,18.20
2023-04-10T23:28:37.444Z,17.00
2023-04-10T23:31:05.948Z,17.60
2023-04-10T23:33:34.136Z,15.30
2023-04-10T23:36:02.377Z,16.50
2023-04-10T23:38:31.212Z,17.60
2023-04-10T23:41:00.276Z,16.60
2023-04-10T23:43:28.487Z,17.30
2023-04-10T23:45:56.705Z,17.60
2023-04-10T23:48:29.301Z,17.50
2023-04-10T23:51:05.380Z,17.80
2023-04-10T23:53:33.705Z,19.80
2023-04-10T23:56:01.937Z,18.00
2023-04-10T23:58:30.239Z,19.40
